Check out our new BloomSky Weather System.

Active alerts


No alerts


Thunder radar  blitzortung!


Rain radar more information rain snow radar


Visit our other weather sites:

Template documentation
and downloads

And another site



Weather Underground History page Text

Daily Summary for March 13, 2017 Units:  Metric    English   Both
« Previous Day
Next Day »
Daily Weekly Monthly Yearly Custom
  High: Low: Average:
Temperature: 19.8 °C 9.3 °C 13.1 °C
Dew Point: 13.1 °C 8.5 °C 10.3 °C
Humidity: 97 % 61 % 84 %
Wind Speed: 19.3 km/h 0 km/h 3.5 km/h
Wind Gust: 24.1 km/h - -
Wind:- - NW
Pressure: 1022.2 hPa 1016.8 hPa -
Precipitation: 0 mm    
Historical Graphs
 
 
Tabular Data for March 13, 2017
Time Temperature Dew Point Pressure Wind Wind Speed Wind Gust Humidity Rainfall Rate (Hourly)
00:04 11.6 °C 10.2 °C 1018.8 hPa Calm   3.2 km/h 91 % 0 mm
00:09 11.6 °C 10.2 °C 1018.8 hPa Calm   3.2 km/h 91 % 0 mm
00:14 11.5 °C 10.1 °C 1018.8 hPa Calm   3.2 km/h 91 % 0 mm
00:19 11.4 °C 10 °C 1018.5 hPa WNW 1.6 km/h 3.2 km/h 91 % 0 mm
00:24 11.4 °C 10 °C 1018.5 hPa Calm   3.2 km/h 91 % 0 mm
00:29 11.4 °C 10.1 °C 1018.5 hPa Calm   3.2 km/h 92 % 0 mm
00:34 11.3 °C 10 °C 1018.5 hPa Calm   3.2 km/h 92 % 0 mm
00:39 11.3 °C 10 °C 1018.5 hPa Calm   3.2 km/h 92 % 0 mm
00:44 11.3 °C 10 °C 1018.5 hPa Calm   3.2 km/h 92 % 0 mm
00:49 11.3 °C 10 °C 1018.5 hPa Calm   3.2 km/h 92 % 0 mm
00:54 11.3 °C 10 °C 1018.5 hPa Calm   3.2 km/h 92 % 0 mm
00:59 11.3 °C 10 °C 1018.2 hPa Calm   3.2 km/h 92 % 0 mm
01:04 11.2 °C 9.9 °C 1018.2 hPa Calm   3.2 km/h 92 % 0 mm
01:09 11.1 °C 9.8 °C 1018.2 hPa Calm   3.2 km/h 92 % 0 mm
01:14 11.1 °C 9.8 °C 1017.8 hPa Calm   1.6 km/h 92 % 0 mm
01:19 11 °C 9.8 °C 1017.8 hPa Calm   1.6 km/h 92 % 0 mm
01:24 10.9 °C 9.8 °C 1017.8 hPa Calm   1.6 km/h 93 % 0 mm
01:29 10.8 °C 9.7 °C 1017.5 hPa Calm   1.6 km/h 93 % 0 mm
01:34 10.7 °C 9.6 °C 1017.5 hPa Calm   1.6 km/h 93 % 0 mm
01:39 10.7 °C 9.6 °C 1017.5 hPa Calm   1.6 km/h 93 % 0 mm
01:44 10.6 °C 9.5 °C 1017.5 hPa Calm   1.6 km/h 93 % 0 mm
01:49 10.4 °C 9.3 °C 1017.2 hPa Calm   1.6 km/h 93 % 0 mm
01:54 10.3 °C 9.2 °C 1017.5 hPa Calm   1.6 km/h 93 % 0 mm
01:59 10.2 °C 9.3 °C 1017.5 hPa Calm     94 % 0 mm
02:04 10.2 °C 9.3 °C 1017.5 hPa Calm   1.6 km/h 94 % 0 mm
02:09 10.1 °C 9.2 °C 1017.5 hPa Calm   1.6 km/h 94 % 0 mm
02:14 10 °C 9.1 °C 1017.5 hPa Calm   1.6 km/h 94 % 0 mm
02:19 9.9 °C 9 °C 1017.5 hPa Calm   1.6 km/h 94 % 0 mm
02:24 9.9 °C 9.1 °C 1017.2 hPa Calm   1.6 km/h 95 % 0 mm
02:29 9.8 °C 9 °C 1017.2 hPa Calm   1.6 km/h 95 % 0 mm
02:35 9.8 °C 9 °C 1017.2 hPa Calm   1.6 km/h 95 % 0 mm
02:39 9.7 °C 8.9 °C 1017.2 hPa Calm   1.6 km/h 95 % 0 mm
02:45 9.7 °C 8.9 °C 1017.5 hPa Calm     95 % 0 mm
02:50 9.7 °C 8.9 °C 1017.5 hPa Calm   1.6 km/h 95 % 0 mm
02:55 9.6 °C 9 °C 1017.5 hPa Calm   1.6 km/h 96 % 0 mm
03:00 9.6 °C 9 °C 1017.2 hPa SSE 1.6 km/h 1.6 km/h 96 % 0 mm
03:05 9.7 °C 9.1 °C 1017.2 hPa Calm   1.6 km/h 96 % 0 mm
03:10 9.8 °C 9.2 °C 1017.2 hPa Calm   1.6 km/h 96 % 0 mm
03:15 9.7 °C 9.1 °C 1017.2 hPa Calm   1.6 km/h 96 % 0 mm
03:20 9.7 °C 9.1 °C 1017.2 hPa Calm   1.6 km/h 96 % 0 mm
03:25 9.7 °C 9.1 °C 1017.2 hPa Calm   1.6 km/h 96 % 0 mm
03:30 9.6 °C 9 °C 1017.2 hPa Calm     96 % 0 mm
03:35 9.6 °C 9 °C 1017.2 hPa Calm     96 % 0 mm
03:40 9.6 °C 9 °C 1017.2 hPa Calm     96 % 0 mm
03:45 9.6 °C 9 °C 1017.2 hPa Calm     96 % 0 mm
03:50 9.5 °C 8.9 °C 1017.2 hPa Calm     96 % 0 mm
03:55 9.5 °C 8.9 °C 1017.2 hPa Calm   1.6 km/h 96 % 0 mm
04:00 9.5 °C 8.9 °C 1017.2 hPa Calm   3.2 km/h 96 % 0 mm
04:05 9.5 °C 9 °C 1017.5 hPa Calm   4.8 km/h 97 % 0 mm
04:10 9.5 °C 9 °C 1017.5 hPa Calm   4.8 km/h 97 % 0 mm
04:15 9.5 °C 8.9 °C 1017.2 hPa Calm   4.8 km/h 96 % 0 mm
04:20 9.5 °C 9 °C 1017.2 hPa Calm   4.8 km/h 97 % 0 mm
04:25 9.4 °C 8.9 °C 1017.5 hPa West 1.6 km/h 4.8 km/h 97 % 0 mm
04:30 9.4 °C 8.9 °C 1017.2 hPa NW 1.6 km/h 6.4 km/h 97 % 0 mm
04:35 9.4 °C 8.8 °C 1017.2 hPa NW 1.6 km/h 6.4 km/h 96 % 0 mm
04:40 9.4 °C 8.8 °C 1017.2 hPa Calm   6.4 km/h 96 % 0 mm
04:45 9.3 °C 8.7 °C 1017.2 hPa Calm   4.8 km/h 96 % 0 mm
04:50 9.3 °C 8.7 °C 1017.2 hPa NW 1.6 km/h 3.2 km/h 96 % 0 mm
04:55 9.3 °C 8.8 °C 1017.2 hPa Calm   3.2 km/h 97 % 0 mm
05:00 9.3 °C 8.8 °C 1017.2 hPa Calm   3.2 km/h 97 % 0 mm
05:05 9.3 °C 8.8 °C 1017.2 hPa WNW 1.6 km/h 3.2 km/h 97 % 0 mm
05:10 9.3 °C 8.8 °C 1016.8 hPa WNW 1.6 km/h 6.4 km/h 97 % 0 mm
05:15 9.3 °C 8.8 °C 1017.2 hPa NW 1.6 km/h 6.4 km/h 97 % 0 mm
05:20 9.3 °C 8.7 °C 1017.2 hPa NW 3.2 km/h 6.4 km/h 96 % 0 mm
05:25 9.3 °C 8.8 °C 1017.2 hPa NW 3.2 km/h 6.4 km/h 97 % 0 mm
05:26 9.3 °C 8.8 °C 1017.2 hPa NW 3.2 km/h 6.4 km/h 97 % 0 mm
05:31 9.3 °C 8.8 °C 1017.2 hPa NW 3.2 km/h 6.4 km/h 97 % 0 mm
05:36 9.4 °C 8.9 °C 1017.2 hPa WNW 1.6 km/h 8 km/h 97 % 0 mm
05:41 9.5 °C 9 °C 1017.2 hPa NW 6.4 km/h 8 km/h 97 % 0 mm
05:46 9.5 °C 9 °C 1017.2 hPa Calm   8 km/h 97 % 0 mm
05:51 9.5 °C 8.9 °C 1017.2 hPa Calm   8 km/h 96 % 0 mm
05:56 9.6 °C 9 °C 1017.2 hPa NW 1.6 km/h 6.4 km/h 96 % 0 mm
06:01 9.6 °C 9.1 °C 1017.5 hPa NW 3.2 km/h 6.4 km/h 97 % 0 mm
06:06 9.7 °C 9.1 °C 1017.5 hPa NW 6.4 km/h 9.7 km/h 96 % 0 mm
06:11 9.7 °C 9.1 °C 1017.2 hPa NW 1.6 km/h 9.7 km/h 96 % 0 mm
06:16 9.7 °C 9.1 °C 1017.5 hPa NNW 4.8 km/h 11.3 km/h 96 % 0 mm
06:21 9.7 °C 9.1 °C 1017.2 hPa NW 1.6 km/h 11.3 km/h 96 % 0 mm
06:26 9.8 °C 9.2 °C 1017.2 hPa WNW 1.6 km/h 11.3 km/h 96 % 0 mm
06:31 9.8 °C 9.2 °C 1017.2 hPa NW 1.6 km/h 8 km/h 96 % 0 mm
06:36 9.9 °C 9.3 °C 1017.2 hPa WNW 1.6 km/h 6.4 km/h 96 % 0 mm
06:41 9.9 °C 9.3 °C 1017.2 hPa Calm   4.8 km/h 96 % 0 mm
06:46 10 °C 9.4 °C 1017.2 hPa NNW 1.6 km/h 3.2 km/h 96 % 0 mm
06:51 10.1 °C 9.5 °C 1017.2 hPa West 1.6 km/h 4.8 km/h 96 % 0 mm
06:56 10.1 °C 9.5 °C 1017.5 hPa WNW 1.6 km/h 4.8 km/h 96 % 0 mm
07:01 10.1 °C 9.5 °C 1017.2 hPa WNW 1.6 km/h 4.8 km/h 96 % 0 mm
07:02 10.2 °C 9.6 °C 1017.2 hPa NW 1.6 km/h 4.8 km/h 96 % 0 mm
07:07 10.2 °C 9.6 °C 1017.2 hPa NNW 3.2 km/h 4.8 km/h 96 % 0 mm
07:12 10.2 °C 9.6 °C 1017.2 hPa NNW 3.2 km/h 4.8 km/h 96 % 0 mm
07:17 10.3 °C 9.5 °C 1017.2 hPa NW 3.2 km/h 4.8 km/h 95 % 0 mm
07:22 10.3 °C 9.5 °C 1017.5 hPa NW 3.2 km/h 6.4 km/h 95 % 0 mm
07:27 10.3 °C 9.5 °C 1017.8 hPa NW 4.8 km/h 8 km/h 95 % 0 mm
07:32 10.3 °C 9.5 °C 1017.8 hPa NNW 3.2 km/h 9.7 km/h 95 % 0 mm
07:38 10.4 °C 9.6 °C 1017.8 hPa NNW 3.2 km/h 9.7 km/h 95 % 0 mm
07:43 10.4 °C 9.6 °C 1017.8 hPa NW 4.8 km/h 9.7 km/h 95 % 0 mm
07:48 10.4 °C 9.6 °C 1018.2 hPa NNW 4.8 km/h 8 km/h 95 % 0 mm
07:53 10.5 °C 9.7 °C 1017.8 hPa NW 1.6 km/h 11.3 km/h 95 % 0 mm
07:58 10.6 °C 9.8 °C 1018.2 hPa North 8 km/h 11.3 km/h 95 % 0 mm
08:03 10.6 °C 9.8 °C 1018.5 hPa NW 6.4 km/h 11.3 km/h 95 % 0 mm
08:08 10.7 °C 9.9 °C 1018.2 hPa NW 6.4 km/h 11.3 km/h 95 % 0 mm
08:13 10.7 °C 9.9 °C 1018.5 hPa NW 3.2 km/h 9.7 km/h 95 % 0 mm
08:18 10.8 °C 10 °C 1018.5 hPa NW 4.8 km/h 9.7 km/h 95 % 0 mm
08:28 10.9 °C 10.1 °C 1018.5 hPa NW 4.8 km/h 11.3 km/h 95 % 0 mm
08:33 10.9 °C 10 °C 1018.5 hPa NNW 3.2 km/h 11.3 km/h 94 % 0 mm
08:38 11.1 °C 10.3 °C 1018.5 hPa WNW 1.6 km/h 11.3 km/h 95 % 0 mm
08:43 11.2 °C 10.3 °C 1018.5 hPa NW 4.8 km/h 11.3 km/h 94 % 0 mm
08:48 11.3 °C 10.4 °C 1018.8 hPa NNW 3.2 km/h 11.3 km/h 94 % 0 mm
08:53 11.4 °C 10.5 °C 1018.8 hPa NW 4.8 km/h 11.3 km/h 94 % 0 mm
08:58 11.4 °C 10.5 °C 1018.8 hPa NW 4.8 km/h 14.5 km/h 94 % 0 mm
09:03 11.5 °C 10.6 °C 1018.8 hPa NNW 4.8 km/h 14.5 km/h 94 % 0 mm
09:08 11.6 °C 10.7 °C 1018.8 hPa NW 4.8 km/h 17.7 km/h 94 % 0 mm
09:13 11.7 °C 10.6 °C 1019.2 hPa NW 4.8 km/h 17.7 km/h 93 % 0 mm
09:18 11.8 °C 10.7 °C 1019.2 hPa NW 4.8 km/h 17.7 km/h 93 % 0 mm
09:23 11.8 °C 10.7 °C 1019.2 hPa NW 6.4 km/h 12.9 km/h 93 % 0 mm
09:28 11.9 °C 10.8 °C 1019.2 hPa NNE 9.7 km/h 12.9 km/h 93 % 0 mm
09:34 12 °C 10.9 °C 1019.2 hPa NW 4.8 km/h 12.9 km/h 93 % 0 mm
09:39 12.1 °C 10.8 °C 1019.5 hPa NW 6.4 km/h 12.9 km/h 92 % 0 mm
09:44 12.2 °C 10.9 °C 1019.5 hPa NW 4.8 km/h 12.9 km/h 92 % 0 mm
09:49 12.3 °C 10.9 °C 1019.5 hPa NNW 4.8 km/h 14.5 km/h 91 % 0 mm
09:54 12.4 °C 11 °C 1019.5 hPa NW 3.2 km/h 14.5 km/h 91 % 0 mm
09:59 12.6 °C 11.2 °C 1019.5 hPa NW 3.2 km/h 14.5 km/h 91 % 0 mm
10:04 12.8 °C 11.2 °C 1019.5 hPa NNW 1.6 km/h 11.3 km/h 90 % 0 mm
10:09 13.1 °C 11.3 °C 1019.5 hPa NNW 4.8 km/h 8 km/h 89 % 0 mm
10:14 13.2 °C 11.3 °C 1019.5 hPa NW 4.8 km/h 9.7 km/h 88 % 0 mm
10:19 13.4 °C 11.3 °C 1019.5 hPa NW 4.8 km/h 9.7 km/h 87 % 0 mm
10:24 13.6 °C 11.5 °C 1019.2 hPa NW 1.6 km/h 9.7 km/h 87 % 0 mm
10:29 13.8 °C 11.5 °C 1019.5 hPa NW 4.8 km/h 9.7 km/h 86 % 0 mm
10:34 13.8 °C 11.3 °C 1019.2 hPa NNW 3.2 km/h 9.7 km/h 85 % 0 mm
10:39 13.9 °C 11.4 °C 1019.2 hPa NNW 1.6 km/h 8 km/h 85 % 0 mm
10:44 14.1 °C 11.6 °C 1019.5 hPa NNW 1.6 km/h 8 km/h 85 % 0 mm
10:49 14.2 °C 11.7 °C 1019.5 hPa West 3.2 km/h 8 km/h 85 % 0 mm
10:54 14.2 °C 11.7 °C 1019.9 hPa NW 4.8 km/h 6.4 km/h 85 % 0 mm
10:59 14.2 °C 11.7 °C 1019.9 hPa NNW 1.6 km/h 11.3 km/h 85 % 0 mm
11:04 14.1 °C 11.4 °C 1019.9 hPa WNW 3.2 km/h 12.9 km/h 84 % 0 mm
11:09 14.2 °C 11.5 °C 1019.9 hPa NW 6.4 km/h 12.9 km/h 84 % 0 mm
11:14 14.1 °C 11.4 °C 1019.9 hPa WNW 8 km/h 12.9 km/h 84 % 0 mm
11:19 14.2 °C 11.5 °C 1019.9 hPa NNW 9.7 km/h 12.9 km/h 84 % 0 mm
11:24 14.1 °C 11.3 °C 1019.9 hPa NW 6.4 km/h 16.1 km/h 83 % 0 mm
11:29 14.1 °C 11.3 °C 1020.2 hPa NW 11.3 km/h 22.5 km/h 83 % 0 mm
11:34 14 °C 11 °C 1020.2 hPa NW 16.1 km/h 22.5 km/h 82 % 0 mm
11:39 13.8 °C 11 °C 1020.2 hPa NNW 9.7 km/h 22.5 km/h 83 % 0 mm
11:44 13.8 °C 11 °C 1020.2 hPa NW 8 km/h 19.3 km/h 83 % 0 mm
11:49 13.7 °C 11 °C 1020.2 hPa NW 4.8 km/h 19.3 km/h 84 % 0 mm
11:54 13.7 °C 10.9 °C 1020.5 hPa NNW 11.3 km/h 19.3 km/h 83 % 0 mm
11:59 13.4 °C 10.8 °C 1020.5 hPa NW 6.4 km/h 19.3 km/h 84 % 0 mm
12:04 13.2 °C 10.6 °C 1020.5 hPa NW 8 km/h 19.3 km/h 84 % 0 mm
12:05 13.2 °C 10.6 °C 1020.5 hPa WNW 9.7 km/h 20.9 km/h 84 % 0 mm
12:10 13.1 °C 10.5 °C 1020.2 hPa NW 11.3 km/h 20.9 km/h 84 % 0 mm
12:15 13.2 °C 10.7 °C 1020.2 hPa NW 4.8 km/h 20.9 km/h 85 % 0 mm
12:20 13.2 °C 10.7 °C 1020.5 hPa NW 6.4 km/h 19.3 km/h 85 % 0 mm
12:25 13.2 °C 10.6 °C 1020.5 hPa NW 4.8 km/h 19.3 km/h 84 % 0 mm
12:30 13.4 °C 10.8 °C 1020.2 hPa North 4.8 km/h 19.3 km/h 84 % 0 mm
12:35 13.7 °C 11 °C 1019.9 hPa NW 1.6 km/h 14.5 km/h 84 % 0 mm
12:40 14.2 °C 11.5 °C 1019.9 hPa North 3.2 km/h 14.5 km/h 84 % 0 mm
12:45 14.4 °C 11.4 °C 1019.9 hPa NNW 1.6 km/h 9.7 km/h 82 % 0 mm
12:50 14.7 °C 11.7 °C 1019.9 hPa NNW 8 km/h 9.7 km/h 82 % 0 mm
12:55 14.8 °C 11.4 °C 1019.9 hPa NW 8 km/h 11.3 km/h 80 % 0 mm
13:00 14.9 °C 11.3 °C 1019.9 hPa NNW 3.2 km/h 11.3 km/h 79 % 0 mm
13:05 15.1 °C 11.7 °C 1019.5 hPa Calm   11.3 km/h 80 % 0 mm
13:10 15.6 °C 12 °C 1019.9 hPa WNW 8 km/h 11.3 km/h 79 % 0 mm
13:15 15.4 °C 11.2 °C 1019.9 hPa NW 4.8 km/h 17.7 km/h 76 % 0 mm
13:20 15.5 °C 11.7 °C 1019.9 hPa WNW 3.2 km/h 17.7 km/h 78 % 0 mm
13:25 15.4 °C 11.4 °C 1019.5 hPa NW 3.2 km/h 17.7 km/h 77 % 0 mm
13:30 15.5 °C 11.5 °C 1019.5 hPa WNW 6.4 km/h 14.5 km/h 77 % 0 mm
13:35 15.6 °C 11.6 °C 1019.5 hPa NW 6.4 km/h 14.5 km/h 77 % 0 mm
13:40 15.6 °C 11.4 °C 1019.5 hPa North 11.3 km/h 19.3 km/h 76 % 0 mm
13:45 15.6 °C 11.6 °C 1019.2 hPa WNW 8 km/h 19.3 km/h 77 % 0 mm
13:50 15.7 °C 11.7 °C 1019.2 hPa NNW 8 km/h 19.3 km/h 77 % 0 mm
13:55 15.6 °C 11.4 °C 1019.2 hPa North 11.3 km/h 16.1 km/h 76 % 0 mm
14:00 15.6 °C 11.8 °C 1018.8 hPa NW 6.4 km/h 16.1 km/h 78 % 0 mm
14:05 15.6 °C 11.4 °C 1018.8 hPa North 11.3 km/h 16.1 km/h 76 % 0 mm
14:10 15.7 °C 11.7 °C 1018.8 hPa NW 4.8 km/h 16.1 km/h 77 % 0 mm
14:15 16.1 °C 11.9 °C 1018.5 hPa NW 3.2 km/h 16.1 km/h 76 % 0 mm
14:20 16.3 °C 11.9 °C 1018.8 hPa NNW 3.2 km/h 16.1 km/h 75 % 0 mm
14:25 16.4 °C 11.8 °C 1018.5 hPa Calm   16.1 km/h 74 % 0 mm
14:30 16.5 °C 12.1 °C 1018.5 hPa NNW 4.8 km/h 16.1 km/h 75 % 0 mm
14:35 16.6 °C 12.1 °C 1018.2 hPa Calm   9.7 km/h 75 % 0 mm
14:41 16.7 °C 12 °C 1018.2 hPa NNW 9.7 km/h 14.5 km/h 74 % 0 mm
14:46 16.6 °C 11.7 °C 1018.5 hPa NW 4.8 km/h 14.5 km/h 73 % 0 mm
14:51 16.8 °C 12.3 °C 1018.5 hPa NNW 6.4 km/h 14.5 km/h 75 % 0 mm
14:56 16.9 °C 12.2 °C 1018.5 hPa NW 6.4 km/h 14.5 km/h 74 % 0 mm
15:01 17 °C 12.3 °C 1018.5 hPa NW 8 km/h 14.5 km/h 74 % 0 mm
15:06 17.2 °C 12.7 °C 1018.5 hPa NNW 3.2 km/h 14.5 km/h 75 % 0 mm
15:11 17.6 °C 12.3 °C 1018.5 hPa NNW 9.7 km/h 14.5 km/h 71 % 0 mm
15:16 17.5 °C 12.6 °C 1018.2 hPa NW 9.7 km/h 17.7 km/h 73 % 0 mm
15:21 17.8 °C 13.1 °C 1018.2 hPa NW 11.3 km/h 17.7 km/h 74 % 0 mm
15:26 17.8 °C 12.5 °C 1017.8 hPa Calm   17.7 km/h 71 % 0 mm
15:31 17.9 °C 12.6 °C 1017.8 hPa NW 6.4 km/h 14.5 km/h 71 % 0 mm
15:37 18.4 °C 12.6 °C 1017.8 hPa NW 3.2 km/h 14.5 km/h 69 % 0 mm
15:42 18.6 °C 12.8 °C 1017.8 hPa WNW 3.2 km/h 12.9 km/h 69 % 0 mm
15:47 18.7 °C 12.2 °C 1017.8 hPa North 12.9 km/h 12.9 km/h 66 % 0 mm
15:52 18.9 °C 12.6 °C 1017.8 hPa North 6.4 km/h 16.1 km/h 67 % 0 mm
15:57 19.4 °C 12.4 °C 1017.8 hPa NNW 11.3 km/h 16.1 km/h 64 % 0 mm
16:02 19.4 °C 11.9 °C 1017.8 hPa North 6.4 km/h 17.7 km/h 62 % 0 mm
16:07 19.5 °C 12.3 °C 1017.8 hPa NNW 9.7 km/h 20.9 km/h 63 % 0 mm
16:12 19.8 °C 12.3 °C 1017.8 hPa NNW 6.4 km/h 20.9 km/h 62 % 0 mm
16:17 19.5 °C 12.3 °C 1017.8 hPa WNW 9.7 km/h 20.9 km/h 63 % 0 mm
16:22 19.4 °C 12.2 °C 1017.8 hPa NW 6.4 km/h 19.3 km/h 63 % 0 mm
16:27 19.3 °C 12.1 °C 1017.8 hPa NW 19.3 km/h 20.9 km/h 63 % 0 mm
16:32 19.3 °C 12.1 °C 1017.8 hPa NNW 8 km/h 22.5 km/h 63 % 0 mm
16:37 19.4 °C 12.2 °C 1017.8 hPa North 6.4 km/h 22.5 km/h 63 % 0 mm
16:42 19.4 °C 11.9 °C 1017.8 hPa NW 14.5 km/h 22.5 km/h 62 % 0 mm
16:47 19.2 °C 12.2 °C 1017.8 hPa WSW 3.2 km/h 19.3 km/h 64 % 0 mm
16:52 19.4 °C 12.2 °C 1017.8 hPa NW 11.3 km/h 17.7 km/h 63 % 0 mm
16:57 19.5 °C 12.3 °C 1017.8 hPa West 8 km/h 17.7 km/h 63 % 0 mm
17:02 19.6 °C 12.4 °C 1017.8 hPa NNW 8 km/h 17.7 km/h 63 % 0 mm
17:07 19.7 °C 12.5 °C 1017.8 hPa West 4.8 km/h 17.7 km/h 63 % 0 mm
17:12 19.8 °C 12.1 °C 1017.8 hPa NNW 11.3 km/h 14.5 km/h 61 % 0 mm
17:17 19.7 °C 12 °C 1017.8 hPa NW 9.7 km/h 19.3 km/h 61 % 0 mm
17:22 19.7 °C 12.5 °C 1017.8 hPa NNW 8 km/h 19.3 km/h 63 % 0 mm
17:27 19.7 °C 12 °C 1017.8 hPa NW 16.1 km/h 19.3 km/h 61 % 0 mm
17:32 19.4 °C 11.7 °C 1017.8 hPa NW 12.9 km/h 24.1 km/h 61 % 0 mm
17:37 19.2 °C 12 °C 1017.8 hPa WNW 8 km/h 24.1 km/h 63 % 0 mm
17:42 19.1 °C 12.1 °C 1017.8 hPa NNW 11.3 km/h 24.1 km/h 64 % 0 mm
17:47 18.9 °C 11.9 °C 1017.8 hPa NNW 11.3 km/h 20.9 km/h 64 % 0 mm
17:52 18.9 °C 11.9 °C 1017.8 hPa NNW 9.7 km/h 20.9 km/h 64 % 0 mm
17:57 18.7 °C 11.8 °C 1018.2 hPa NNW 4.8 km/h 20.9 km/h 64 % 0 mm
18:02 18.8 °C 11.8 °C 1018.2 hPa NNW 11.3 km/h 19.3 km/h 64 % 0 mm
18:07 18.7 °C 11.8 °C 1018.2 hPa NW 6.4 km/h 19.3 km/h 64 % 0 mm
18:12 18.6 °C 11.7 °C 1018.5 hPa NW 8 km/h 16.1 km/h 64 % 0 mm
18:17 18.3 °C 11.4 °C 1018.5 hPa WNW 9.7 km/h 17.7 km/h 64 % 0 mm
18:22 18.2 °C 11.3 °C 1018.5 hPa NW 8 km/h 22.5 km/h 64 % 0 mm
18:27 18 °C 11.1 °C 1018.8 hPa NW 11.3 km/h 22.5 km/h 64 % 0 mm
18:32 17.9 °C 11.2 °C 1018.8 hPa West 9.7 km/h 22.5 km/h 65 % 0 mm
18:37 17.7 °C 11 °C 1018.8 hPa NNW 4.8 km/h 17.7 km/h 65 % 0 mm
18:42 17.6 °C 11.2 °C 1018.8 hPa NW 8 km/h 17.7 km/h 66 % 0 mm
18:47 17.4 °C 10.5 °C 1018.8 hPa NNW 14.5 km/h 16.1 km/h 64 % 0 mm
18:52 17.3 °C 10.7 °C 1019.2 hPa NW 4.8 km/h 17.7 km/h 65 % 0 mm
18:57 17.2 °C 10.6 °C 1019.2 hPa NW 8 km/h 17.7 km/h 65 % 0 mm
19:02 17.1 °C 10.5 °C 1019.2 hPa NNW 6.4 km/h 17.7 km/h 65 % 0 mm
19:07 16.9 °C 10.5 °C 1019.2 hPa WNW 4.8 km/h 17.7 km/h 66 % 0 mm
19:12 16.7 °C 10.5 °C 1019.5 hPa NW 3.2 km/h 16.1 km/h 67 % 0 mm
19:17 16.5 °C 10.6 °C 1019.5 hPa NNW 3.2 km/h 12.9 km/h 68 % 0 mm
19:22 16.3 °C 10.2 °C 1019.5 hPa NNW 3.2 km/h 11.3 km/h 67 % 0 mm
19:27 16.1 °C 10 °C 1019.5 hPa NNW 6.4 km/h 11.3 km/h 67 % 0 mm
19:32 15.9 °C 10 °C 1019.5 hPa NW 1.6 km/h 11.3 km/h 68 % 0 mm
19:37 15.7 °C 10 °C 1019.5 hPa NW 1.6 km/h 9.7 km/h 69 % 0 mm
19:42 15.6 °C 10.1 °C 1019.5 hPa NNW 1.6 km/h 9.7 km/h 70 % 0 mm
19:47 15.4 °C 10 °C 1019.9 hPa Calm   11.3 km/h 70 % 0 mm
19:52 15.3 °C 10.1 °C 1019.9 hPa NW 1.6 km/h 11.3 km/h 71 % 0 mm
19:57 15.2 °C 10 °C 1019.9 hPa WNW 1.6 km/h 11.3 km/h 71 % 0 mm
20:02 15.1 °C 10.1 °C 1019.9 hPa NW 1.6 km/h 4.8 km/h 72 % 0 mm
20:07 14.9 °C 10.1 °C 1019.9 hPa Calm   4.8 km/h 73 % 0 mm
20:12 14.8 °C 10 °C 1020.2 hPa Calm   3.2 km/h 73 % 0 mm
20:17 14.6 °C 9.8 °C 1020.2 hPa Calm   3.2 km/h 73 % 0 mm
20:22 14.4 °C 9.8 °C 1020.2 hPa Calm   1.6 km/h 74 % 0 mm
20:27 14.3 °C 9.9 °C 1020.2 hPa Calm   1.6 km/h 75 % 0 mm
20:32 14.3 °C 9.9 °C 1020.2 hPa Calm   3.2 km/h 75 % 0 mm
20:37 14.2 °C 9.8 °C 1020.5 hPa Calm   3.2 km/h 75 % 0 mm
20:42 13.9 °C 9.7 °C 1020.5 hPa Calm   3.2 km/h 76 % 0 mm
20:47 13.6 °C 9.6 °C 1020.9 hPa Calm   1.6 km/h 77 % 0 mm
20:52 13.4 °C 9.6 °C 1020.9 hPa Calm     78 % 0 mm
20:57 13.2 °C 9.6 °C 1020.9 hPa Calm     79 % 0 mm
21:02 12.9 °C 9.3 °C 1020.9 hPa Calm     79 % 0 mm
21:07 12.8 °C 9.6 °C 1021.2 hPa Calm     81 % 0 mm
21:12 12.7 °C 9.7 °C 1021.2 hPa Calm     82 % 0 mm
21:17 12.5 °C 9.5 °C 1021.2 hPa Calm     82 % 0 mm
21:22 12.4 °C 9.8 °C 1021.2 hPa Calm     84 % 0 mm
21:27 12.4 °C 9.8 °C 1021.2 hPa Calm     84 % 0 mm
21:32 12.4 °C 9.8 °C 1021.2 hPa Calm     84 % 0 mm
21:37 12.2 °C 9.6 °C 1021.6 hPa Calm     84 % 0 mm
21:42 12.1 °C 9.7 °C 1021.6 hPa Calm     85 % 0 mm
21:48 11.9 °C 9.5 °C 1021.6 hPa Calm     85 % 0 mm
21:53 11.8 °C 9.5 °C 1021.6 hPa Calm     86 % 0 mm
21:58 11.6 °C 9.3 °C 1021.6 hPa Calm     86 % 0 mm
22:03 11.5 °C 9.4 °C 1021.6 hPa Calm     87 % 0 mm
22:08 11.4 °C 9.5 °C 1021.9 hPa Calm     88 % 0 mm
22:13 11.2 °C 9.3 °C 1021.9 hPa Calm     88 % 0 mm
22:18 11 °C 9.3 °C 1021.9 hPa Calm     89 % 0 mm
22:23 10.9 °C 9.2 °C 1021.9 hPa Calm     89 % 0 mm
22:28 10.7 °C 9.1 °C 1021.9 hPa Calm     90 % 0 mm
22:33 10.9 °C 9.5 °C 1021.9 hPa Calm     91 % 0 mm
22:38 11 °C 9.6 °C 1022.2 hPa Calm     91 % 0 mm
22:43 11 °C 9.6 °C 1021.9 hPa Calm     91 % 0 mm
22:48 10.9 °C 9.5 °C 1021.9 hPa Calm     91 % 0 mm
22:53 10.8 °C 9.4 °C 1021.9 hPa Calm     91 % 0 mm
22:58 10.7 °C 9.3 °C 1021.9 hPa Calm     91 % 0 mm
22:59 10.7 °C 9.3 °C 1021.9 hPa Calm     91 % 0 mm
23:04 10.6 °C 9.2 °C 1021.9 hPa Calm     91 % 0 mm
23:09 10.5 °C 9.3 °C 1021.9 hPa Calm     92 % 0 mm
23:14 10.6 °C 9.4 °C 1021.6 hPa Calm     92 % 0 mm
23:19 10.6 °C 9.4 °C 1021.6 hPa Calm   1.6 km/h 92 % 0 mm
23:24 10.6 °C 9.4 °C 1021.6 hPa Calm   1.6 km/h 92 % 0 mm
23:29 10.4 °C 9.2 °C 1021.9 hPa Calm   1.6 km/h 92 % 0 mm
23:34 10.3 °C 9.1 °C 1021.6 hPa Calm     92 % 0 mm
23:39 10.3 °C 9.1 °C 1021.6 hPa Calm     92 % 0 mm
23:44 10.1 °C 8.9 °C 1021.6 hPa Calm     92 % 0 mm
23:49 9.8 °C 8.6 °C 1021.9 hPa Calm     92 % 0 mm
23:54 9.7 °C 8.5 °C 1021.9 hPa Calm     92 % 0 mm
23:59 9.7 °C 8.8 °C 1021.9 hPa Calm     94 % 0 mm
Spring, Texas: Villages of Bridgestone
Compliments of Weather Underground - 2.75 mb

Script developed by  Jim McMurry - jmcmurry@mwt.net Adapted for the template by  Wim van der Kuil - Leuven-Template.eu

You find our weather info also at:

UK Metoffice

WeatherCloud

Weather Underground

Mid-South Weather Network

AWEKAS

Citizen Weather Observer Program (CWOP)

HAMweather, WeatherForYou, PWS Weather

Equipment we use:

Weather-station
Davis Vantage Vue

Weather-program
Meteohub

Weather-server
Debian 7.9 x86 (Guest)

Provider
DreamHost

Davis Vantage Vue

Meteohub

Debian 7.9 x86 (Guest)

DreamHost